createdAt,value
2023-01-11T00:00:55.444Z,2.90
2023-01-11T00:03:21.992Z,2.80
2023-01-11T00:05:48.523Z,2.80
2023-01-11T00:08:15.075Z,2.80
2023-01-11T00:10:41.752Z,2.80
2023-01-11T00:13:08.384Z,2.80
2023-01-11T00:15:35.865Z,2.80
2023-01-11T00:18:02.446Z,2.80
2023-01-11T00:20:29.028Z,2.80
2023-01-11T00:22:55.631Z,2.70
2023-01-11T00:25:22.172Z,2.70
2023-01-11T00:27:48.749Z,2.70
2023-01-11T00:30:16.774Z,2.70
2023-01-11T00:32:43.610Z,2.70
2023-01-11T00:35:10.197Z,2.70
2023-01-11T00:37:36.794Z,2.70
2023-01-11T00:40:04.018Z,2.70
2023-01-11T00:42:30.592Z,2.70
2023-01-11T00:44:57.178Z,2.80
2023-01-11T00:47:23.749Z,2.80
2023-01-11T00:49:50.321Z,2.80
2023-01-11T00:52:16.888Z,2.80
2023-01-11T00:54:43.458Z,2.80
2023-01-11T00:57:10.061Z,2.80
2023-01-11T00:59:37.857Z,2.90
2023-01-11T01:02:04.644Z,2.90
2023-01-11T01:04:31.586Z,2.90
2023-01-11T01:06:58.216Z,2.90
2023-01-11T01:09:25.066Z,3.00
2023-01-11T01:11:51.673Z,3.00
2023-01-11T01:14:18.688Z,3.00
2023-01-11T01:16:47.193Z,3.00
2023-01-11T01:19:14.058Z,3.00
2023-01-11T01:21:40.639Z,3.00
2023-01-11T01:24:07.475Z,3.10
2023-01-11T01:26:34.050Z,3.10
2023-01-11T01:29:00.585Z,3.00
2023-01-11T01:31:27.144Z,3.10
2023-01-11T01:33:53.845Z,3.10
2023-01-11T01:36:20.504Z,3.10
2023-01-11T01:38:47.075Z,3.20
2023-01-11T01:41:14.202Z,3.20
2023-01-11T01:43:51.404Z,3.20
2023-01-11T01:46:19.574Z,3.20
2023-01-11T01:48:54.980Z,3.20
2023-01-11T01:51:32.717Z,3.20
2023-01-11T01:54:04.346Z,3.30
2023-01-11T01:56:40.330Z,3.20
2023-01-11T01:59:11.935Z,3.30
2023-01-11T02:01:41.711Z,3.30
2023-01-11T02:04:35.325Z,3.40
2023-01-11T02:07:08.902Z,3.40
2023-01-11T02:09:52.634Z,3.40
2023-01-11T02:12:19.553Z,3.40
2023-01-11T02:14:47.794Z,3.40
2023-01-11T02:17:14.731Z,3.40
2023-01-11T02:19:59.370Z,3.50
2023-01-11T02:22:44.452Z,3.50
2023-01-11T02:25:38.723Z,3.60
2023-01-11T02:28:12.020Z,3.60
2023-01-11T02:30:53.302Z,3.60
2023-01-11T02:33:25.919Z,3.60
2023-01-11T02:36:12.814Z,3.60
2023-01-11T02:38:46.255Z,3.60
2023-01-11T02:41:32.801Z,3.70
2023-01-11T02:44:13.933Z,3.90
2023-01-11T02:46:48.356Z,4.10
2023-01-11T02:49:33.261Z,4.10
2023-01-11T02:52:14.322Z,4.20
2023-01-11T02:54:44.813Z,4.30
2023-01-11T02:57:13.592Z,4.30
2023-01-11T02:59:40.598Z,4.40
2023-01-11T03:02:07.180Z,4.40
2023-01-11T03:04:35.968Z,4.40
2023-01-11T03:07:20.292Z,4.40
2023-01-11T03:10:14.195Z,4.50
2023-01-11T03:13:11.985Z,4.40
2023-01-11T03:16:12.373Z,4.40
2023-01-11T03:19:02.116Z,4.40
2023-01-11T03:21:28.638Z,4.60
2023-01-11T03:24:04.253Z,4.60
2023-01-11T03:26:37.382Z,4.50
2023-01-11T03:29:39.495Z,4.50
2023-01-11T03:32:25.629Z,4.40
2023-01-11T03:35:02.490Z,4.30
2023-01-11T03:37:36.361Z,4.20
2023-01-11T03:40:34.695Z,4.10
2023-01-11T03:43:08.197Z,4.10
2023-01-11T03:45:39.734Z,4.10
2023-01-11T03:48:11.013Z,4.20
2023-01-11T03:50:37.794Z,4.20
2023-01-11T03:53:06.658Z,4.30
2023-01-11T03:55:38.193Z,4.30
2023-01-11T03:58:05.248Z,4.40
2023-01-11T04:00:33.013Z,4.30
2023-01-11T04:03:00.810Z,4.40
2023-01-11T04:05:27.426Z,4.40
2023-01-11T04:07:54.441Z,4.50
2023-01-11T04:10:21.002Z,4.40
2023-01-11T04:12:48.055Z,4.50
2023-01-11T04:15:15.460Z,4.50
2023-01-11T04:17:42.544Z,4.50
2023-01-11T04:20:10.530Z,4.60
2023-01-11T04:22:37.119Z,4.60
2023-01-11T04:25:04.238Z,4.80
2023-01-11T04:27:30.788Z,4.90
2023-01-11T04:29:57.353Z,5.10
2023-01-11T04:32:24.024Z,5.20
2023-01-11T04:34:50.592Z,5.30
2023-01-11T04:37:17.214Z,5.30
2023-01-11T04:39:43.805Z,5.30
2023-01-11T04:42:12.311Z,5.40
2023-01-11T04:44:38.860Z,5.40
2023-01-11T04:47:05.458Z,5.40
2023-01-11T04:49:32.028Z,5.40
2023-01-11T04:51:58.656Z,5.50
2023-01-11T04:54:25.325Z,5.50
2023-01-11T04:56:51.907Z,5.40
2023-01-11T04:59:18.461Z,5.50
2023-01-11T05:01:45.266Z,5.50
2023-01-11T05:04:13.510Z,5.50
2023-01-11T05:06:40.259Z,5.40
2023-01-11T05:09:11.954Z,5.40
2023-01-11T05:11:38.515Z,5.40
2023-01-11T05:14:05.116Z,5.40
2023-01-11T05:16:31.968Z,5.50
2023-01-11T05:19:00.134Z,5.50
2023-01-11T05:21:29.171Z,5.60
2023-01-11T05:23:55.699Z,5.60
2023-01-11T05:26:25.005Z,5.70
2023-01-11T05:28:52.538Z,5.70
2023-01-11T05:31:19.233Z,5.70
2023-01-11T05:33:46.045Z,5.80
2023-01-11T05:36:14.918Z,5.80
2023-01-11T05:38:41.809Z,5.80
2023-01-11T05:41:10.203Z,5.70
2023-01-11T05:43:37.729Z,5.70
2023-01-11T05:46:04.401Z,5.80
2023-01-11T05:48:30.949Z,5.80
2023-01-11T05:50:57.505Z,5.80
2023-01-11T05:53:25.032Z,5.80
2023-01-11T05:55:53.118Z,5.80
2023-01-11T05:58:19.803Z,5.70
2023-01-11T06:00:55.029Z,5.70
2023-01-11T06:03:23.949Z,5.70
2023-01-11T06:05:50.889Z,5.80
2023-01-11T06:08:17.628Z,5.80
2023-01-11T06:10:50.691Z,5.80
2023-01-11T06:13:17.327Z,5.80
2023-01-11T06:15:44.009Z,5.80
2023-01-11T06:18:10.598Z,5.80
2023-01-11T06:20:37.187Z,6.00
2023-01-11T06:23:04.280Z,6.00
2023-01-11T06:25:30.848Z,6.10
2023-01-11T06:28:00.940Z,6.10
2023-01-11T06:30:27.691Z,6.30
2023-01-11T06:32:54.406Z,6.30
2023-01-11T06:35:21.447Z,6.30
2023-01-11T06:37:48.001Z,6.30
2023-01-11T06:40:14.701Z,6.40
2023-01-11T06:42:41.256Z,6.40
2023-01-11T06:45:08.610Z,6.50
2023-01-11T06:47:35.153Z,6.50
2023-01-11T06:50:01.759Z,6.50
2023-01-11T06:52:28.337Z,6.60
2023-01-11T06:54:55.111Z,6.50
2023-01-11T06:57:21.701Z,6.60
2023-01-11T06:59:48.230Z,6.50
2023-01-11T07:02:14.874Z,6.50
2023-01-11T07:04:41.430Z,6.60
2023-01-11T07:07:08.040Z,6.50
2023-01-11T07:09:34.625Z,6.60
2023-01-11T07:12:01.230Z,6.70
2023-01-11T07:14:28.315Z,6.70
2023-01-11T07:16:54.939Z,6.60
2023-01-11T07:19:21.517Z,6.70
2023-01-11T07:21:48.103Z,6.70
2023-01-11T07:24:14.671Z,6.80
2023-01-11T07:26:41.261Z,6.90
2023-01-11T07:29:08.979Z,7.10
2023-01-11T07:31:35.989Z,7.20
2023-01-11T07:34:03.661Z,7.20
2023-01-11T07:36:30.255Z,7.40
2023-01-11T07:38:56.824Z,7.50
2023-01-11T07:41:23.397Z,7.50
2023-01-11T07:43:50.001Z,7.60
2023-01-11T07:46:16.665Z,7.60
2023-01-11T07:48:43.281Z,7.60
2023-01-11T07:51:09.837Z,7.60
2023-01-11T07:53:36.509Z,7.60
2023-01-11T07:56:03.194Z,7.60
2023-01-11T07:58:29.814Z,7.80
2023-01-11T08:00:59.459Z,7.80
2023-01-11T08:03:26.103Z,7.90
2023-01-11T08:05:52.925Z,7.90
2023-01-11T08:08:19.704Z,7.90
2023-01-11T08:10:46.428Z,7.90
2023-01-11T08:13:14.027Z,7.90
2023-01-11T08:15:40.623Z,7.90
2023-01-11T08:18:07.232Z,7.90
2023-01-11T08:20:34.030Z,8.00
2023-01-11T08:23:05.746Z,8.00
2023-01-11T08:25:32.843Z,8.00
2023-01-11T08:28:01.155Z,8.10
2023-01-11T08:30:28.255Z,8.10
2023-01-11T08:32:54.858Z,8.00
2023-01-11T08:35:21.434Z,8.00
2023-01-11T08:37:48.046Z,7.90
2023-01-11T08:40:14.727Z,7.90
2023-01-11T08:42:41.317Z,8.00
2023-01-11T08:45:08.400Z,8.00
2023-01-11T08:47:34.973Z,8.00
2023-01-11T08:50:01.546Z,8.10
2023-01-11T08:52:28.162Z,8.10
2023-01-11T08:54:54.738Z,8.10
2023-01-11T08:57:21.315Z,8.10
2023-01-11T08:59:47.876Z,8.10
2023-01-11T09:02:14.474Z,8.10
2023-01-11T09:04:41.821Z,8.10
2023-01-11T09:07:08.404Z,8.10
2023-01-11T09:09:34.997Z,8.10
2023-01-11T09:12:02.210Z,8.20
2023-01-11T09:14:30.269Z,8.20
2023-01-11T09:16:57.497Z,8.30
2023-01-11T09:19:24.573Z,8.40
2023-01-11T09:21:51.161Z,8.50
2023-01-11T09:24:17.755Z,8.60
2023-01-11T09:26:44.373Z,8.70
2023-01-11T09:29:11.650Z,8.80
2023-01-11T09:31:38.513Z,8.90
2023-01-11T09:34:05.230Z,9.00
2023-01-11T09:36:31.815Z,9.10
2023-01-11T09:38:58.383Z,9.10
2023-01-11T09:41:45.812Z,9.10
2023-01-11T09:44:19.199Z,9.10
2023-01-11T09:46:48.957Z,9.10
2023-01-11T09:49:20.791Z,9.20
2023-01-11T09:51:48.193Z,9.30
2023-01-11T09:54:26.010Z,9.40
2023-01-11T09:57:22.506Z,9.50
2023-01-11T10:00:02.824Z,9.60
2023-01-11T10:02:55.653Z,9.60
2023-01-11T10:05:37.333Z,9.70
2023-01-11T10:18:25.907Z,9.90
2023-01-11T10:18:38.577Z,10.00
2023-01-11T10:20:31.738Z,10.10
2023-01-11T10:23:04.016Z,10.10
2023-01-11T10:25:33.226Z,10.10
2023-01-11T10:28:07.360Z,10.10
2023-01-11T10:30:47.890Z,10.20
2023-01-11T10:33:36.797Z,10.20
2023-01-11T10:36:12.115Z,10.30
2023-01-11T10:38:47.375Z,10.30
2023-01-11T10:41:23.578Z,10.20
2023-01-11T10:44:10.392Z,10.20
2023-01-11T10:46:41.452Z,10.10
2023-01-11T10:49:29.399Z,10.10
2023-01-11T10:52:05.912Z,10.20
2023-01-11T10:54:33.440Z,10.10
2023-01-11T10:57:20.059Z,10.10
2023-01-11T11:00:21.762Z,10.10
2023-01-11T11:02:51.288Z,10.10
2023-01-11T11:05:30.148Z,10.10
2023-01-11T11:08:02.424Z,10.10
2023-01-11T11:10:39.911Z,10.20
2023-01-11T11:13:15.376Z,10.20
2023-01-11T11:16:14.762Z,10.20
2023-01-11T11:18:43.099Z,10.10
2023-01-11T11:21:30.210Z,10.10
2023-01-11T11:24:13.711Z,10.10
2023-01-11T11:26:45.571Z,10.00
2023-01-11T11:29:20.773Z,10.00
2023-01-11T11:31:47.925Z,10.00
2023-01-11T11:34:18.002Z,10.00
2023-01-11T11:36:46.890Z,10.00
2023-01-11T11:39:23.012Z,10.00
2023-01-11T11:41:52.285Z,9.90
2023-01-11T11:44:21.885Z,9.90
2023-01-11T11:47:04.596Z,9.90
2023-01-11T11:49:35.887Z,9.80
2023-01-11T11:52:05.037Z,9.80
2023-01-11T11:54:39.594Z,9.80
2023-01-11T11:57:22.954Z,9.80
2023-01-11T11:59:59.869Z,9.80
2023-01-11T12:02:31.827Z,9.70
2023-01-11T12:05:01.889Z,9.70
2023-01-11T12:07:43.095Z,9.70
2023-01-11T12:10:19.692Z,9.70
2023-01-11T12:13:01.335Z,9.70
2023-01-11T12:15:30.318Z,9.70
2023-01-11T12:18:28.428Z,9.70
2023-01-11T12:20:55.355Z,9.80
2023-01-11T12:23:26.297Z,9.80
2023-01-11T12:26:32.362Z,9.80
2023-01-11T12:29:28.406Z,9.80
2023-01-11T12:32:03.590Z,9.80
2023-01-11T12:34:57.939Z,9.80
2023-01-11T12:37:44.986Z,9.80
2023-01-11T12:40:22.762Z,9.80
2023-01-11T12:43:12.353Z,9.80
2023-01-11T12:46:08.326Z,9.80
2023-01-11T12:49:01.169Z,9.70
2023-01-11T12:51:47.481Z,9.70
2023-01-11T12:54:44.676Z,9.70
2023-01-11T12:57:22.031Z,9.70
2023-01-11T13:00:05.469Z,9.70
2023-01-11T13:03:08.053Z,9.70
2023-01-11T13:05:56.346Z,9.70
2023-01-11T13:08:54.788Z,9.70
2023-01-11T13:11:38.259Z,9.80
2023-01-11T13:14:07.811Z,9.80
2023-01-11T13:16:43.230Z,9.70
2023-01-11T13:19:23.399Z,9.70
2023-01-11T13:21:52.261Z,9.70
2023-01-11T13:24:27.500Z,9.80
2023-01-11T13:27:01.117Z,9.80
2023-01-11T13:29:31.671Z,9.70
2023-01-11T13:32:05.134Z,9.70
2023-01-11T13:34:42.695Z,9.70
2023-01-11T13:37:29.499Z,9.80
2023-01-11T13:40:02.594Z,9.80
2023-01-11T13:42:37.694Z,9.70
2023-01-11T13:45:12.967Z,9.70
2023-01-11T13:47:47.266Z,9.60
2023-01-11T13:50:18.855Z,9.60
2023-01-11T13:52:52.710Z,9.50
2023-01-11T13:55:31.843Z,9.50
2023-01-11T13:58:36.815Z,9.50
2023-01-11T14:01:14.374Z,9.50
2023-01-11T14:03:53.290Z,9.40
2023-01-11T14:06:38.371Z,9.30
2023-01-11T14:09:31.810Z,9.20
2023-01-11T14:12:09.950Z,9.10
2023-01-11T14:15:00.596Z,9.00
2023-01-11T14:17:30.715Z,9.10
2023-01-11T14:20:03.714Z,9.00
2023-01-11T14:22:38.993Z,8.90
2023-01-11T14:25:16.141Z,8.90
2023-01-11T14:28:03.500Z,8.90
2023-01-11T14:30:58.795Z,8.90
2023-01-11T14:33:41.503Z,8.90
2023-01-11T14:36:26.867Z,8.80
2023-01-11T14:38:59.012Z,8.80
2023-01-11T14:41:52.806Z,8.70
2023-01-11T14:44:48.175Z,8.60
2023-01-11T14:47:47.709Z,8.60
2023-01-11T14:50:50.224Z,8.60
2023-01-11T14:53:22.764Z,8.60
2023-01-11T14:55:49.356Z,8.50
2023-01-11T14:58:25.278Z,8.50
2023-01-11T15:00:54.813Z,8.50
2023-01-11T15:03:21.330Z,8.40
2023-01-11T15:06:23.883Z,8.40
2023-01-11T15:08:55.170Z,8.40
2023-01-11T15:11:33.930Z,8.30
2023-01-11T15:14:03.308Z,8.30
2023-01-11T15:16:32.646Z,8.30
2023-01-11T15:19:05.054Z,8.30
2023-01-11T15:21:36.237Z,8.30
2023-01-11T15:24:03.133Z,8.30
2023-01-11T15:26:29.724Z,8.20
2023-01-11T15:29:01.547Z,8.20
2023-01-11T15:31:51.887Z,8.10
2023-01-11T15:34:29.227Z,8.10
2023-01-11T15:37:01.593Z,8.10
2023-01-11T15:39:37.156Z,8.00
2023-01-11T15:42:15.982Z,8.00
2023-01-11T15:45:29.301Z,8.10
2023-01-11T15:48:07.803Z,8.00
2023-01-11T15:50:43.282Z,8.00
2023-01-11T15:53:28.595Z,8.00
2023-01-11T15:56:19.901Z,7.90
2023-01-11T15:59:03.708Z,7.90
2023-01-11T16:01:30.286Z,7.90
2023-01-11T16:04:09.237Z,7.90
2023-01-11T16:06:35.811Z,7.90
2023-01-11T16:09:29.255Z,7.90
2023-01-11T16:12:20.349Z,7.90
2023-01-11T16:15:20.831Z,7.90
2023-01-11T16:17:47.988Z,7.80
2023-01-11T16:20:20.314Z,7.80
2023-01-11T16:22:56.346Z,7.80
2023-01-11T16:25:27.174Z,7.80
2023-01-11T16:27:56.413Z,7.80
2023-01-11T16:30:23.245Z,7.80
2023-01-11T16:32:49.928Z,7.80
2023-01-11T16:35:25.267Z,7.80
2023-01-11T16:37:56.840Z,7.80
2023-01-11T16:40:29.528Z,7.80
2023-01-11T16:43:16.882Z,7.80
2023-01-11T16:45:53.799Z,7.80
2023-01-11T16:48:22.952Z,7.80
2023-01-11T16:50:58.812Z,7.70
2023-01-11T16:53:27.255Z,7.80
2023-01-11T16:55:59.549Z,7.80
2023-01-11T16:58:29.218Z,7.70
2023-01-11T17:01:03.252Z,7.70
2023-01-11T17:03:32.628Z,7.70
2023-01-11T17:06:09.734Z,7.70
2023-01-11T17:08:38.810Z,7.70
2023-01-11T17:11:11.834Z,7.70
2023-01-11T17:14:04.471Z,7.60
2023-01-11T17:16:36.865Z,7.60
2023-01-11T17:19:28.073Z,7.70
2023-01-11T17:22:19.997Z,7.70
2023-01-11T17:24:59.435Z,7.70
2023-01-11T17:27:30.650Z,7.70
2023-01-11T17:29:58.246Z,7.70
2023-01-11T17:32:35.295Z,7.70
2023-01-11T17:35:05.635Z,7.70
2023-01-11T17:37:32.826Z,7.70
2023-01-11T17:39:59.672Z,7.70
2023-01-11T17:42:26.424Z,7.80
2023-01-11T17:44:55.142Z,7.70
2023-01-11T17:47:22.300Z,7.70
2023-01-11T17:49:50.390Z,7.70
2023-01-11T17:52:23.251Z,7.70
2023-01-11T17:55:17.074Z,7.70
2023-01-11T17:57:44.504Z,7.70
2023-01-11T18:00:28.455Z,7.70
2023-01-11T18:02:55.420Z,7.80
2023-01-11T18:05:28.001Z,7.70
2023-01-11T18:07:59.565Z,7.80
2023-01-11T18:10:30.078Z,7.70
2023-01-11T18:12:59.132Z,7.70
2023-01-11T18:15:31.718Z,7.70
2023-01-11T18:17:59.107Z,7.60
2023-01-11T18:20:36.387Z,7.60
2023-01-11T18:23:16.640Z,7.60
2023-01-11T18:25:43.592Z,7.60
2023-01-11T18:28:26.696Z,7.60
2023-01-11T18:30:55.200Z,7.60
2023-01-11T18:33:23.712Z,7.60
2023-01-11T18:35:53.261Z,7.60
2023-01-11T18:38:23.316Z,7.60
2023-01-11T18:40:51.602Z,7.50
2023-01-11T18:43:23.477Z,7.50
2023-01-11T18:45:50.120Z,7.50
2023-01-11T18:48:16.709Z,7.50
2023-01-11T18:50:44.903Z,7.50
2023-01-11T18:53:16.034Z,7.60
2023-01-11T18:55:45.124Z,7.60
2023-01-11T18:58:11.747Z,7.50
2023-01-11T19:00:38.342Z,7.50
2023-01-11T19:03:05.179Z,7.50
2023-01-11T19:05:31.795Z,7.50
2023-01-11T19:07:58.375Z,7.50
2023-01-11T19:10:24.988Z,7.50
2023-01-11T19:12:51.539Z,7.60
2023-01-11T19:15:18.140Z,7.50
2023-01-11T19:17:44.755Z,7.50
2023-01-11T19:20:11.642Z,7.50
2023-01-11T19:22:38.251Z,7.50
2023-01-11T19:25:05.376Z,7.50
2023-01-11T19:27:32.067Z,7.50
2023-01-11T19:29:58.626Z,7.50
2023-01-11T19:32:25.177Z,7.40
2023-01-11T19:34:52.680Z,7.40
2023-01-11T19:37:19.723Z,7.40
2023-01-11T19:39:49.348Z,7.40
2023-01-11T19:42:16.138Z,7.40
2023-01-11T19:44:42.793Z,7.40
2023-01-11T19:47:13.154Z,7.30
2023-01-11T19:49:41.364Z,7.40
2023-01-11T19:52:09.277Z,7.40
2023-01-11T19:54:35.817Z,7.40
2023-01-11T19:57:02.392Z,7.40
2023-01-11T19:59:28.956Z,7.40
2023-01-11T20:01:55.538Z,7.40
2023-01-11T20:04:22.095Z,7.30
2023-01-11T20:06:48.652Z,7.30
2023-01-11T20:09:15.520Z,7.30
2023-01-11T20:11:42.130Z,7.30
2023-01-11T20:14:08.671Z,7.30
2023-01-11T20:16:35.261Z,7.30
2023-01-11T20:19:01.848Z,7.30
2023-01-11T20:21:29.352Z,7.30
2023-01-11T20:23:56.046Z,7.30
2023-01-11T20:26:22.682Z,7.30
2023-01-11T20:28:51.808Z,7.30
2023-01-11T20:31:18.712Z,7.30
2023-01-11T20:33:45.656Z,7.30
2023-01-11T20:36:15.098Z,7.30
2023-01-11T20:38:42.214Z,7.30
2023-01-11T20:41:14.008Z,7.30
2023-01-11T20:43:40.568Z,7.30
2023-01-11T20:46:07.420Z,7.30
2023-01-11T20:48:34.430Z,7.30
2023-01-11T20:51:01.640Z,7.30
2023-01-11T20:53:28.437Z,7.30
2023-01-11T20:55:55.049Z,7.30
2023-01-11T20:58:21.755Z,7.30
2023-01-11T21:00:48.547Z,7.30
2023-01-11T21:03:15.105Z,7.30
2023-01-11T21:05:41.632Z,7.20
2023-01-11T21:08:08.201Z,7.20
2023-01-11T21:10:34.771Z,7.20
2023-01-11T21:13:01.338Z,7.20
2023-01-11T21:15:27.912Z,7.10
2023-01-11T21:17:54.491Z,7.10
2023-01-11T21:20:21.050Z,7.10
2023-01-11T21:22:47.601Z,7.10
2023-01-11T21:25:14.178Z,7.00
2023-01-11T21:27:40.712Z,7.10
2023-01-11T21:30:07.909Z,7.10
2023-01-11T21:32:34.480Z,7.10
2023-01-11T21:35:01.022Z,7.10
2023-01-11T21:37:27.591Z,7.00
2023-01-11T21:39:54.143Z,7.10
2023-01-11T21:42:20.767Z,7.10
2023-01-11T21:44:47.334Z,7.10
2023-01-11T21:47:14.098Z,7.00
2023-01-11T21:49:41.086Z,7.00
2023-01-11T21:52:07.655Z,7.00
2023-01-11T21:54:34.208Z,7.00
2023-01-11T21:57:00.770Z,7.00
2023-01-11T21:59:27.301Z,7.10
2023-01-11T22:01:53.897Z,7.00
2023-01-11T22:04:21.323Z,7.10
2023-01-11T22:06:49.449Z,7.10
2023-01-11T22:09:16.537Z,7.10
2023-01-11T22:11:43.191Z,7.00
2023-01-11T22:14:09.828Z,7.00
2023-01-11T22:16:37.058Z,7.00
2023-01-11T22:19:05.219Z,7.00
2023-01-11T22:21:31.793Z,7.00
2023-01-11T22:23:59.471Z,7.00
2023-01-11T22:26:27.643Z,6.90
2023-01-11T22:28:55.346Z,7.00
2023-01-11T22:31:22.140Z,6.90
2023-01-11T22:33:48.785Z,6.90
2023-01-11T22:36:15.815Z,6.90
2023-01-11T22:38:42.830Z,6.90
2023-01-11T22:41:09.701Z,6.90
2023-01-11T22:43:36.405Z,6.80
2023-01-11T22:46:03.074Z,6.80
2023-01-11T22:48:29.662Z,6.80
2023-01-11T22:50:56.184Z,6.80
2023-01-11T22:53:22.760Z,6.80
2023-01-11T22:55:49.386Z,6.70
2023-01-11T22:58:15.945Z,6.70
2023-01-11T23:00:42.530Z,6.70
2023-01-11T23:03:09.219Z,6.70
2023-01-11T23:05:35.889Z,6.70
2023-01-11T23:08:02.481Z,6.60
2023-01-11T23:10:29.033Z,6.60
2023-01-11T23:12:55.597Z,6.60
2023-01-11T23:15:22.161Z,6.60
2023-01-11T23:17:48.732Z,6.60
2023-01-11T23:20:15.426Z,6.60
2023-01-11T23:22:41.981Z,6.60
2023-01-11T23:25:08.982Z,6.50
2023-01-11T23:27:35.536Z,6.50
2023-01-11T23:30:02.123Z,6.60
2023-01-11T23:32:28.723Z,6.50
2023-01-11T23:34:55.257Z,6.50
2023-01-11T23:37:21.842Z,6.50
2023-01-11T23:39:48.391Z,6.50
2023-01-11T23:42:14.938Z,6.50
2023-01-11T23:44:41.526Z,6.50
2023-01-11T23:47:11.316Z,6.50
2023-01-11T23:49:37.859Z,6.50
2023-01-11T23:52:04.575Z,6.40
2023-01-11T23:54:33.706Z,6.40
2023-01-11T23:57:02.282Z,6.30
2023-01-11T23:59:29.227Z,6.20
